sensor_id;sensor_type;location;lat;lon;timestamp;temperature;humidity
7502;DHT22;3792;47.740;7.606;2023-08-31T00:01:04;16.60;99.90
7502;DHT22;3792;47.740;7.606;2023-08-31T00:03:32;16.60;99.90
7502;DHT22;3792;47.740;7.606;2023-08-31T00:06:01;16.60;99.90
7502;DHT22;3792;47.740;7.606;2023-08-31T00:08:29;16.50;99.90
7502;DHT22;3792;47.740;7.606;2023-08-31T00:10:56;16.50;99.90
7502;DHT22;3792;47.740;7.606;2023-08-31T00:13:24;16.40;99.90
7502;DHT22;3792;47.740;7.606;2023-08-31T00:15:54;16.40;99.90
7502;DHT22;3792;47.740;7.606;2023-08-31T00:18:22;16.30;99.90
7502;DHT22;3792;47.740;7.606;2023-08-31T00:20:51;16.30;99.90
7502;DHT22;3792;47.740;7.606;2023-08-31T00:23:18;16.20;99.90
7502;DHT22;3792;47.740;7.606;2023-08-31T00:25:46;16.20;99.90
7502;DHT22;3792;47.740;7.606;2023-08-31T00:28:14;16.10;99.90
7502;DHT22;3792;47.740;7.606;2023-08-31T00:30:41;16.00;99.90
7502;DHT22;3792;47.740;7.606;2023-08-31T00:33:10;16.00;99.90
7502;DHT22;3792;47.740;7.606;2023-08-31T00:35:37;16.00;99.90
7502;DHT22;3792;47.740;7.606;2023-08-31T00:38:08;16.00;99.90
7502;DHT22;3792;47.740;7.606;2023-08-31T00:40:38;16.00;99.90
7502;DHT22;3792;47.740;7.606;2023-08-31T00:43:06;16.00;99.90
7502;DHT22;3792;47.740;7.606;2023-08-31T00:45:34;16.00;99.90
7502;DHT22;3792;47.740;7.606;2023-08-31T00:48:03;16.00;99.90
7502;DHT22;3792;47.740;7.606;2023-08-31T00:50:31;15.90;99.90
7502;DHT22;3792;47.740;7.606;2023-08-31T00:52:58;15.90;99.90
7502;DHT22;3792;47.740;7.606;2023-08-31T00:55:26;15.90;99.90
7502;DHT22;3792;47.740;7.606;2023-08-31T00:57:53;15.80;99.90
7502;DHT22;3792;47.740;7.606;2023-08-31T01:00:22;15.80;99.90
7502;DHT22;3792;47.740;7.606;2023-08-31T01:02:59;15.80;99.90
7502;DHT22;3792;47.740;7.606;2023-08-31T01:05:38;15.70;99.90
7502;DHT22;3792;47.740;7.606;2023-08-31T01:08:18;15.70;99.90
7502;DHT22;3792;47.740;7.606;2023-08-31T01:10:55;15.70;99.90
7502;DHT22;3792;47.740;7.606;2023-08-31T01:13:25;15.70;99.90
7502;DHT22;3792;47.740;7.606;2023-08-31T01:15:57;15.60;99.90
7502;DHT22;3792;47.740;7.606;2023-08-31T01:18:28;15.60;99.90
7502;DHT22;3792;47.740;7.606;2023-08-31T01:21:02;15.60;99.90
7502;DHT22;3792;47.740;7.606;2023-08-31T01:23:47;15.60;99.90
7502;DHT22;3792;47.740;7.606;2023-08-31T01:26:15;15.50;99.90
7502;DHT22;3792;47.740;7.606;2023-08-31T01:28:43;15.50;99.90
7502;DHT22;3792;47.740;7.606;2023-08-31T01:31:11;15.50;99.90
7502;DHT22;3792;47.740;7.606;2023-08-31T01:33:38;15.40;99.90
7502;DHT22;3792;47.740;7.606;2023-08-31T01:36:12;15.40;99.90
7502;DHT22;3792;47.740;7.606;2023-08-31T01:38:43;15.30;99.90
7502;DHT22;3792;47.740;7.606;2023-08-31T01:41:16;15.30;99.90
7502;DHT22;3792;47.740;7.606;2023-08-31T01:43:44;15.30;99.90
7502;DHT22;3792;47.740;7.606;2023-08-31T01:46:13;15.20;99.90
7502;DHT22;3792;47.740;7.606;2023-08-31T01:48:40;15.20;99.90
7502;DHT22;3792;47.740;7.606;2023-08-31T01:51:07;15.20;99.90
7502;DHT22;3792;47.740;7.606;2023-08-31T01:53:35;15.20;99.90
7502;DHT22;3792;47.740;7.606;2023-08-31T01:56:04;15.10;99.90
7502;DHT22;3792;47.740;7.606;2023-08-31T01:58:31;15.10;99.90
7502;DHT22;3792;47.740;7.606;2023-08-31T02:00:58;15.00;99.90
7502;DHT22;3792;47.740;7.606;2023-08-31T02:03:26;14.90;99.90
7502;DHT22;3792;47.740;7.606;2023-08-31T02:06:08;14.90;99.90
7502;DHT22;3792;47.740;7.606;2023-08-31T02:08:38;14.90;99.90
7502;DHT22;3792;47.740;7.606;2023-08-31T02:11:07;14.90;99.90
7502;DHT22;3792;47.740;7.606;2023-08-31T02:13:34;14.90;99.90
7502;DHT22;3792;47.740;7.606;2023-08-31T02:16:02;14.90;99.90
7502;DHT22;3792;47.740;7.606;2023-08-31T02:18:29;15.00;99.90
7502;DHT22;3792;47.740;7.606;2023-08-31T02:20:56;14.90;99.90
7502;DHT22;3792;47.740;7.606;2023-08-31T02:23:24;14.90;99.90
7502;DHT22;3792;47.740;7.606;2023-08-31T02:25:51;14.80;99.90
7502;DHT22;3792;47.740;7.606;2023-08-31T02:28:19;14.80;99.90
7502;DHT22;3792;47.740;7.606;2023-08-31T02:30:57;14.80;99.90
7502;DHT22;3792;47.740;7.606;2023-08-31T02:33:24;14.70;99.90
7502;DHT22;3792;47.740;7.606;2023-08-31T02:35:52;14.70;99.90
7502;DHT22;3792;47.740;7.606;2023-08-31T02:38:20;14.70;99.90
7502;DHT22;3792;47.740;7.606;2023-08-31T02:40:47;14.70;99.90
7502;DHT22;3792;47.740;7.606;2023-08-31T02:43:14;14.70;99.90
7502;DHT22;3792;47.740;7.606;2023-08-31T02:45:42;14.70;99.90
7502;DHT22;3792;47.740;7.606;2023-08-31T02:48:09;14.60;99.90
7502;DHT22;3792;47.740;7.606;2023-08-31T02:50:37;14.60;99.90
7502;DHT22;3792;47.740;7.606;2023-08-31T02:53:05;14.60;99.90
7502;DHT22;3792;47.740;7.606;2023-08-31T02:55:32;14.70;99.90
7502;DHT22;3792;47.740;7.606;2023-08-31T02:57:59;14.60;99.90
7502;DHT22;3792;47.740;7.606;2023-08-31T03:00:26;14.50;99.90
7502;DHT22;3792;47.740;7.606;2023-08-31T03:02:55;14.50;99.90
7502;DHT22;3792;47.740;7.606;2023-08-31T03:05:22;14.50;99.90
7502;DHT22;3792;47.740;7.606;2023-08-31T03:07:49;14.50;99.90
7502;DHT22;3792;47.740;7.606;2023-08-31T03:10:16;14.50;99.90
7502;DHT22;3792;47.740;7.606;2023-08-31T03:12:43;14.50;99.90
7502;DHT22;3792;47.740;7.606;2023-08-31T03:15:10;14.50;99.90
7502;DHT22;3792;47.740;7.606;2023-08-31T03:17:37;14.60;99.90
7502;DHT22;3792;47.740;7.606;2023-08-31T03:20:07;14.60;99.90
7502;DHT22;3792;47.740;7.606;2023-08-31T03:22:34;14.70;99.90
7502;DHT22;3792;47.740;7.606;2023-08-31T03:25:02;14.70;99.90
7502;DHT22;3792;47.740;7.606;2023-08-31T03:27:29;14.70;99.90
7502;DHT22;3792;47.740;7.606;2023-08-31T03:29:56;14.70;99.90
7502;DHT22;3792;47.740;7.606;2023-08-31T03:32:23;14.70;99.90
7502;DHT22;3792;47.740;7.606;2023-08-31T03:34:50;14.60;99.90
7502;DHT22;3792;47.740;7.606;2023-08-31T03:37:18;14.60;99.90
7502;DHT22;3792;47.740;7.606;2023-08-31T03:39:47;14.60;99.90
7502;DHT22;3792;47.740;7.606;2023-08-31T03:42:14;14.50;99.90
7502;DHT22;3792;47.740;7.606;2023-08-31T03:44:41;14.50;99.90
7502;DHT22;3792;47.740;7.606;2023-08-31T03:47:08;14.60;99.90
7502;DHT22;3792;47.740;7.606;2023-08-31T03:49:35;14.60;99.90
7502;DHT22;3792;47.740;7.606;2023-08-31T03:52:03;14.60;99.90
7502;DHT22;3792;47.740;7.606;2023-08-31T03:54:31;14.60;99.90
7502;DHT22;3792;47.740;7.606;2023-08-31T03:56:58;14.60;99.90
7502;DHT22;3792;47.740;7.606;2023-08-31T03:59:25;14.60;99.90
7502;DHT22;3792;47.740;7.606;2023-08-31T04:01:52;14.60;99.90
7502;DHT22;3792;47.740;7.606;2023-08-31T04:04:19;14.60;99.90
7502;DHT22;3792;47.740;7.606;2023-08-31T04:06:46;14.70;99.90
7502;DHT22;3792;47.740;7.606;2023-08-31T04:09:14;14.60;99.90
7502;DHT22;3792;47.740;7.606;2023-08-31T04:11:42;14.60;99.90
7502;DHT22;3792;47.740;7.606;2023-08-31T04:14:09;14.70;99.90
7502;DHT22;3792;47.740;7.606;2023-08-31T04:16:36;14.70;99.90
7502;DHT22;3792;47.740;7.606;2023-08-31T04:19:03;14.60;99.90
7502;DHT22;3792;47.740;7.606;2023-08-31T04:21:30;14.60;99.90
7502;DHT22;3792;47.740;7.606;2023-08-31T04:23:57;14.60;99.90
7502;DHT22;3792;47.740;7.606;2023-08-31T04:26:25;14.50;99.90
7502;DHT22;3792;47.740;7.606;2023-08-31T04:28:54;14.50;99.90
7502;DHT22;3792;47.740;7.606;2023-08-31T04:31:22;14.40;99.90
7502;DHT22;3792;47.740;7.606;2023-08-31T04:33:49;14.50;99.90
7502;DHT22;3792;47.740;7.606;2023-08-31T04:36:19;14.50;99.90
7502;DHT22;3792;47.740;7.606;2023-08-31T04:38:46;14.60;99.90
7502;DHT22;3792;47.740;7.606;2023-08-31T04:41:14;14.60;99.90
7502;DHT22;3792;47.740;7.606;2023-08-31T04:43:41;14.70;99.90
7502;DHT22;3792;47.740;7.606;2023-08-31T04:46:10;14.70;99.90
7502;DHT22;3792;47.740;7.606;2023-08-31T04:48:37;14.70;99.90
7502;DHT22;3792;47.740;7.606;2023-08-31T04:51:05;14.70;99.90
7502;DHT22;3792;47.740;7.606;2023-08-31T04:53:32;14.70;99.90
7502;DHT22;3792;47.740;7.606;2023-08-31T04:55:59;14.80;99.90
7502;DHT22;3792;47.740;7.606;2023-08-31T04:58:26;14.80;99.90
7502;DHT22;3792;47.740;7.606;2023-08-31T05:00:53;14.80;99.90
7502;DHT22;3792;47.740;7.606;2023-08-31T05:03:21;14.80;99.90
7502;DHT22;3792;47.740;7.606;2023-08-31T05:05:48;14.80;99.90
7502;DHT22;3792;47.740;7.606;2023-08-31T05:08:15;14.80;99.90
7502;DHT22;3792;47.740;7.606;2023-08-31T05:10:42;14.80;99.90
7502;DHT22;3792;47.740;7.606;2023-08-31T05:13:11;14.90;99.90
7502;DHT22;3792;47.740;7.606;2023-08-31T05:15:38;15.00;99.90
7502;DHT22;3792;47.740;7.606;2023-08-31T05:18:05;14.90;99.90
7502;DHT22;3792;47.740;7.606;2023-08-31T05:20:35;15.00;99.90
7502;DHT22;3792;47.740;7.606;2023-08-31T05:23:03;15.00;99.90
7502;DHT22;3792;47.740;7.606;2023-08-31T05:25:30;15.00;99.90
7502;DHT22;3792;47.740;7.606;2023-08-31T05:27:57;15.10;99.90
7502;DHT22;3792;47.740;7.606;2023-08-31T05:30:24;15.10;99.90
7502;DHT22;3792;47.740;7.606;2023-08-31T05:32:51;15.10;99.90
7502;DHT22;3792;47.740;7.606;2023-08-31T05:35:18;15.10;99.90
7502;DHT22;3792;47.740;7.606;2023-08-31T05:37:46;15.20;99.90
7502;DHT22;3792;47.740;7.606;2023-08-31T05:40:13;15.10;99.90
7502;DHT22;3792;47.740;7.606;2023-08-31T05:42:42;15.10;99.90
7502;DHT22;3792;47.740;7.606;2023-08-31T05:45:09;15.20;99.90
7502;DHT22;3792;47.740;7.606;2023-08-31T05:47:36;15.20;99.90
7502;DHT22;3792;47.740;7.606;2023-08-31T05:50:04;15.30;99.90
7502;DHT22;3792;47.740;7.606;2023-08-31T05:52:32;15.40;99.90
7502;DHT22;3792;47.740;7.606;2023-08-31T05:55:00;15.40;99.90
7502;DHT22;3792;47.740;7.606;2023-08-31T05:57:27;15.40;99.90
7502;DHT22;3792;47.740;7.606;2023-08-31T05:59:54;15.40;99.90
7502;DHT22;3792;47.740;7.606;2023-08-31T06:02:21;15.40;99.90
7502;DHT22;3792;47.740;7.606;2023-08-31T06:04:48;15.40;99.90
7502;DHT22;3792;47.740;7.606;2023-08-31T06:07:16;15.40;99.90
7502;DHT22;3792;47.740;7.606;2023-08-31T06:09:43;15.40;99.90
7502;DHT22;3792;47.740;7.606;2023-08-31T06:12:11;15.50;99.90
7502;DHT22;3792;47.740;7.606;2023-08-31T06:14:38;15.50;99.90
7502;DHT22;3792;47.740;7.606;2023-08-31T06:17:05;15.50;99.90
7502;DHT22;3792;47.740;7.606;2023-08-31T06:19:34;15.60;99.90
7502;DHT22;3792;47.740;7.606;2023-08-31T06:22:02;15.60;99.90
7502;DHT22;3792;47.740;7.606;2023-08-31T06:24:29;15.60;99.90
7502;DHT22;3792;47.740;7.606;2023-08-31T06:26:56;15.70;99.90
7502;DHT22;3792;47.740;7.606;2023-08-31T06:29:24;15.80;99.90
7502;DHT22;3792;47.740;7.606;2023-08-31T06:31:51;15.80;99.90
7502;DHT22;3792;47.740;7.606;2023-08-31T06:34:18;15.80;99.90
7502;DHT22;3792;47.740;7.606;2023-08-31T06:36:47;15.80;99.90
7502;DHT22;3792;47.740;7.606;2023-08-31T06:39:14;15.90;99.90
7502;DHT22;3792;47.740;7.606;2023-08-31T06:41:41;16.00;99.90
7502;DHT22;3792;47.740;7.606;2023-08-31T06:44:08;16.10;99.90
7502;DHT22;3792;47.740;7.606;2023-08-31T06:46:37;16.20;99.90
7502;DHT22;3792;47.740;7.606;2023-08-31T06:49:04;16.40;99.90
7502;DHT22;3792;47.740;7.606;2023-08-31T06:51:31;16.60;99.90
7502;DHT22;3792;47.740;7.606;2023-08-31T06:53:58;16.60;99.90
7502;DHT22;3792;47.740;7.606;2023-08-31T06:56:31;16.60;99.90
7502;DHT22;3792;47.740;7.606;2023-08-31T06:58:59;16.60;99.90
7502;DHT22;3792;47.740;7.606;2023-08-31T07:01:26;16.60;99.90
7502;DHT22;3792;47.740;7.606;2023-08-31T07:03:55;16.60;99.90
7502;DHT22;3792;47.740;7.606;2023-08-31T07:06:22;16.60;99.90
7502;DHT22;3792;47.740;7.606;2023-08-31T07:08:49;16.60;99.90
7502;DHT22;3792;47.740;7.606;2023-08-31T07:11:16;16.60;99.90
7502;DHT22;3792;47.740;7.606;2023-08-31T07:13:43;16.60;99.90
7502;DHT22;3792;47.740;7.606;2023-08-31T07:16:10;16.70;99.90
7502;DHT22;3792;47.740;7.606;2023-08-31T07:18:37;16.70;99.90
7502;DHT22;3792;47.740;7.606;2023-08-31T07:21:06;16.80;99.90
7502;DHT22;3792;47.740;7.606;2023-08-31T07:23:35;16.90;99.90
7502;DHT22;3792;47.740;7.606;2023-08-31T07:26:06;16.80;99.90
7502;DHT22;3792;47.740;7.606;2023-08-31T07:28:33;17.00;99.90
7502;DHT22;3792;47.740;7.606;2023-08-31T07:31:03;17.20;99.90
7502;DHT22;3792;47.740;7.606;2023-08-31T07:33:31;17.40;99.90
7502;DHT22;3792;47.740;7.606;2023-08-31T07:35:58;17.50;99.90
7502;DHT22;3792;47.740;7.606;2023-08-31T07:38:27;17.50;99.90
7502;DHT22;3792;47.740;7.606;2023-08-31T07:40:54;17.40;99.90
7502;DHT22;3792;47.740;7.606;2023-08-31T07:43:21;17.40;99.90
7502;DHT22;3792;47.740;7.606;2023-08-31T07:45:49;17.40;99.90
7502;DHT22;3792;47.740;7.606;2023-08-31T07:48:16;17.60;99.90
7502;DHT22;3792;47.740;7.606;2023-08-31T07:50:43;17.70;99.90
7502;DHT22;3792;47.740;7.606;2023-08-31T07:53:11;17.70;99.90
7502;DHT22;3792;47.740;7.606;2023-08-31T07:55:40;17.70;99.90
7502;DHT22;3792;47.740;7.606;2023-08-31T07:58:07;17.70;99.90
7502;DHT22;3792;47.740;7.606;2023-08-31T08:00:34;17.70;99.90
7502;DHT22;3792;47.740;7.606;2023-08-31T08:03:01;17.70;99.90
7502;DHT22;3792;47.740;7.606;2023-08-31T08:05:28;17.70;99.90
7502;DHT22;3792;47.740;7.606;2023-08-31T08:07:55;17.60;99.90
7502;DHT22;3792;47.740;7.606;2023-08-31T08:10:22;17.60;99.90
7502;DHT22;3792;47.740;7.606;2023-08-31T08:12:50;17.70;99.90
7502;DHT22;3792;47.740;7.606;2023-08-31T08:15:17;17.70;99.90
7502;DHT22;3792;47.740;7.606;2023-08-31T08:17:44;17.70;99.90
7502;DHT22;3792;47.740;7.606;2023-08-31T08:20:12;17.80;99.90
7502;DHT22;3792;47.740;7.606;2023-08-31T08:22:39;17.90;99.90
7502;DHT22;3792;47.740;7.606;2023-08-31T08:25:06;18.00;99.90
7502;DHT22;3792;47.740;7.606;2023-08-31T08:27:33;18.10;99.90
7502;DHT22;3792;47.740;7.606;2023-08-31T08:30:04;18.20;99.90
7502;DHT22;3792;47.740;7.606;2023-08-31T08:32:33;18.30;99.90
7502;DHT22;3792;47.740;7.606;2023-08-31T08:35:01;18.30;99.90
7502;DHT22;3792;47.740;7.606;2023-08-31T08:37:28;18.40;99.90
7502;DHT22;3792;47.740;7.606;2023-08-31T08:39:55;18.30;99.90
7502;DHT22;3792;47.740;7.606;2023-08-31T08:42:24;18.30;99.90
7502;DHT22;3792;47.740;7.606;2023-08-31T08:44:52;18.30;99.90
7502;DHT22;3792;47.740;7.606;2023-08-31T08:47:20;18.20;99.90
7502;DHT22;3792;47.740;7.606;2023-08-31T08:49:48;18.10;99.90
7502;DHT22;3792;47.740;7.606;2023-08-31T08:52:15;17.90;99.90
7502;DHT22;3792;47.740;7.606;2023-08-31T08:54:42;17.90;99.90
7502;DHT22;3792;47.740;7.606;2023-08-31T08:57:10;17.80;99.90
7502;DHT22;3792;47.740;7.606;2023-08-31T08:59:37;17.80;99.90
7502;DHT22;3792;47.740;7.606;2023-08-31T09:02:07;17.80;99.90
7502;DHT22;3792;47.740;7.606;2023-08-31T09:04:37;17.70;99.90
7502;DHT22;3792;47.740;7.606;2023-08-31T09:07:04;17.70;99.90
7502;DHT22;3792;47.740;7.606;2023-08-31T09:09:31;17.60;99.90
7502;DHT22;3792;47.740;7.606;2023-08-31T09:12:06;17.60;99.90
7502;DHT22;3792;47.740;7.606;2023-08-31T09:14:34;17.70;99.90
7502;DHT22;3792;47.740;7.606;2023-08-31T09:17:01;17.80;99.90
7502;DHT22;3792;47.740;7.606;2023-08-31T09:19:29;17.80;99.90
7502;DHT22;3792;47.740;7.606;2023-08-31T09:21:57;17.90;99.90
7502;DHT22;3792;47.740;7.606;2023-08-31T09:24:24;18.00;99.90
7502;DHT22;3792;47.740;7.606;2023-08-31T09:26:53;18.00;99.90
7502;DHT22;3792;47.740;7.606;2023-08-31T09:29:20;18.10;99.90
7502;DHT22;3792;47.740;7.606;2023-08-31T09:31:48;18.30;99.90
7502;DHT22;3792;47.740;7.606;2023-08-31T09:34:15;18.30;99.90
7502;DHT22;3792;47.740;7.606;2023-08-31T09:36:43;18.30;99.90
7502;DHT22;3792;47.740;7.606;2023-08-31T09:39:13;18.30;99.90
7502;DHT22;3792;47.740;7.606;2023-08-31T09:41:52;18.40;99.90
7502;DHT22;3792;47.740;7.606;2023-08-31T09:44:20;18.20;99.90
7502;DHT22;3792;47.740;7.606;2023-08-31T09:46:47;18.20;99.90
7502;DHT22;3792;47.740;7.606;2023-08-31T09:49:16;18.20;99.90
7502;DHT22;3792;47.740;7.606;2023-08-31T09:51:45;18.20;99.90
7502;DHT22;3792;47.740;7.606;2023-08-31T09:54:15;18.30;99.90
7502;DHT22;3792;47.740;7.606;2023-08-31T09:56:43;18.30;99.90
7502;DHT22;3792;47.740;7.606;2023-08-31T09:59:12;18.40;99.90
7502;DHT22;3792;47.740;7.606;2023-08-31T10:01:40;18.50;99.90
7502;DHT22;3792;47.740;7.606;2023-08-31T10:04:08;18.50;99.90
7502;DHT22;3792;47.740;7.606;2023-08-31T10:06:35;18.60;99.90
7502;DHT22;3792;47.740;7.606;2023-08-31T10:09:03;18.60;99.90
7502;DHT22;3792;47.740;7.606;2023-08-31T10:11:32;18.70;99.90
7502;DHT22;3792;47.740;7.606;2023-08-31T10:14:00;18.70;99.90
7502;DHT22;3792;47.740;7.606;2023-08-31T10:16:29;18.70;99.90
7502;DHT22;3792;47.740;7.606;2023-08-31T10:18:57;18.80;99.90
7502;DHT22;3792;47.740;7.606;2023-08-31T10:21:24;18.90;99.90
7502;DHT22;3792;47.740;7.606;2023-08-31T10:23:51;18.90;99.90
7502;DHT22;3792;47.740;7.606;2023-08-31T10:26:25;18.90;99.90
7502;DHT22;3792;47.740;7.606;2023-08-31T10:28:54;19.00;99.90
7502;DHT22;3792;47.740;7.606;2023-08-31T10:31:22;19.10;99.90
7502;DHT22;3792;47.740;7.606;2023-08-31T10:33:55;19.30;99.90
7502;DHT22;3792;47.740;7.606;2023-08-31T10:36:34;19.40;99.90
7502;DHT22;3792;47.740;7.606;2023-08-31T10:39:07;19.60;99.90
7502;DHT22;3792;47.740;7.606;2023-08-31T10:41:38;19.60;99.90
7502;DHT22;3792;47.740;7.606;2023-08-31T10:44:22;19.70;99.90
7502;DHT22;3792;47.740;7.606;2023-08-31T10:46:50;19.70;99.90
7502;DHT22;3792;47.740;7.606;2023-08-31T10:49:19;19.70;99.90
7502;DHT22;3792;47.740;7.606;2023-08-31T10:51:48;19.70;99.90
7502;DHT22;3792;47.740;7.606;2023-08-31T10:54:21;19.90;99.90
7502;DHT22;3792;47.740;7.606;2023-08-31T10:57:03;19.90;99.90
7502;DHT22;3792;47.740;7.606;2023-08-31T10:59:51;19.90;99.90
7502;DHT22;3792;47.740;7.606;2023-08-31T11:02:30;20.00;99.90
7502;DHT22;3792;47.740;7.606;2023-08-31T11:05:01;20.00;99.90
7502;DHT22;3792;47.740;7.606;2023-08-31T11:07:30;20.20;99.90
7502;DHT22;3792;47.740;7.606;2023-08-31T11:10:14;20.40;99.90
7502;DHT22;3792;47.740;7.606;2023-08-31T11:12:44;20.50;99.90
7502;DHT22;3792;47.740;7.606;2023-08-31T11:15:13;20.50;99.90
7502;DHT22;3792;47.740;7.606;2023-08-31T11:17:40;20.40;99.90
7502;DHT22;3792;47.740;7.606;2023-08-31T11:20:08;20.40;99.90
7502;DHT22;3792;47.740;7.606;2023-08-31T11:22:38;20.30;99.90
7502;DHT22;3792;47.740;7.606;2023-08-31T11:25:07;20.30;99.90
7502;DHT22;3792;47.740;7.606;2023-08-31T11:27:35;20.30;99.90
7502;DHT22;3792;47.740;7.606;2023-08-31T11:30:03;20.40;99.90
7502;DHT22;3792;47.740;7.606;2023-08-31T11:32:32;20.40;99.90
7502;DHT22;3792;47.740;7.606;2023-08-31T11:34:59;20.50;99.90
7502;DHT22;3792;47.740;7.606;2023-08-31T11:37:26;20.50;99.90
7502;DHT22;3792;47.740;7.606;2023-08-31T11:39:54;20.60;99.90
7502;DHT22;3792;47.740;7.606;2023-08-31T11:42:21;20.70;99.90
7502;DHT22;3792;47.740;7.606;2023-08-31T11:44:50;20.80;99.90
7502;DHT22;3792;47.740;7.606;2023-08-31T11:47:18;20.80;99.90
7502;DHT22;3792;47.740;7.606;2023-08-31T11:49:48;20.80;99.90
7502;DHT22;3792;47.740;7.606;2023-08-31T11:52:15;20.80;99.90
7502;DHT22;3792;47.740;7.606;2023-08-31T11:54:43;20.60;99.90
7502;DHT22;3792;47.740;7.606;2023-08-31T11:57:11;20.60;99.90
7502;DHT22;3792;47.740;7.606;2023-08-31T11:59:41;20.60;99.90
7502;DHT22;3792;47.740;7.606;2023-08-31T12:02:08;20.60;99.90
7502;DHT22;3792;47.740;7.606;2023-08-31T12:04:42;20.50;99.90
7502;DHT22;3792;47.740;7.606;2023-08-31T12:07:11;20.60;99.90
7502;DHT22;3792;47.740;7.606;2023-08-31T12:09:38;20.60;99.90
7502;DHT22;3792;47.740;7.606;2023-08-31T12:12:07;20.60;99.90
7502;DHT22;3792;47.740;7.606;2023-08-31T12:14:37;20.50;99.90
7502;DHT22;3792;47.740;7.606;2023-08-31T12:17:07;20.50;99.90
7502;DHT22;3792;47.740;7.606;2023-08-31T12:19:37;20.50;99.90
7502;DHT22;3792;47.740;7.606;2023-08-31T12:22:04;20.50;99.90
7502;DHT22;3792;47.740;7.606;2023-08-31T12:24:38;20.60;99.90
7502;DHT22;3792;47.740;7.606;2023-08-31T12:27:06;20.60;99.90
7502;DHT22;3792;47.740;7.606;2023-08-31T12:29:33;20.70;99.90
7502;DHT22;3792;47.740;7.606;2023-08-31T12:32:00;20.80;99.90
7502;DHT22;3792;47.740;7.606;2023-08-31T12:34:28;20.90;99.90
7502;DHT22;3792;47.740;7.606;2023-08-31T12:36:56;20.90;99.90
7502;DHT22;3792;47.740;7.606;2023-08-31T12:39:26;21.00;99.90
7502;DHT22;3792;47.740;7.606;2023-08-31T12:41:54;21.10;99.90
7502;DHT22;3792;47.740;7.606;2023-08-31T12:44:22;21.20;99.90
7502;DHT22;3792;47.740;7.606;2023-08-31T12:46:51;21.20;99.90
7502;DHT22;3792;47.740;7.606;2023-08-31T12:49:18;21.30;99.90
7502;DHT22;3792;47.740;7.606;2023-08-31T12:51:46;21.30;99.90
7502;DHT22;3792;47.740;7.606;2023-08-31T12:54:14;21.40;99.90
7502;DHT22;3792;47.740;7.606;2023-08-31T12:56:41;21.50;99.90
7502;DHT22;3792;47.740;7.606;2023-08-31T12:59:10;21.40;99.90
7502;DHT22;3792;47.740;7.606;2023-08-31T13:01:37;21.20;99.90
7502;DHT22;3792;47.740;7.606;2023-08-31T13:04:04;21.10;99.90
7502;DHT22;3792;47.740;7.606;2023-08-31T13:06:31;21.10;99.90
7502;DHT22;3792;47.740;7.606;2023-08-31T13:08:59;21.10;99.90
7502;DHT22;3792;47.740;7.606;2023-08-31T13:11:26;21.10;99.90
7502;DHT22;3792;47.740;7.606;2023-08-31T13:13:53;21.20;99.90
7502;DHT22;3792;47.740;7.606;2023-08-31T13:16:22;21.20;99.90
7502;DHT22;3792;47.740;7.606;2023-08-31T13:18:50;21.30;99.90
7502;DHT22;3792;47.740;7.606;2023-08-31T13:21:17;21.30;99.90
7502;DHT22;3792;47.740;7.606;2023-08-31T13:23:44;21.20;99.90
7502;DHT22;3792;47.740;7.606;2023-08-31T13:26:11;21.20;99.90
7502;DHT22;3792;47.740;7.606;2023-08-31T13:28:38;21.10;99.90
7502;DHT22;3792;47.740;7.606;2023-08-31T13:31:06;21.00;99.90
7502;DHT22;3792;47.740;7.606;2023-08-31T13:33:35;21.00;99.90
7502;DHT22;3792;47.740;7.606;2023-08-31T13:36:02;20.90;99.90
7502;DHT22;3792;47.740;7.606;2023-08-31T13:38:29;21.00;99.90
7502;DHT22;3792;47.740;7.606;2023-08-31T13:40:56;21.10;99.90
7502;DHT22;3792;47.740;7.606;2023-08-31T13:43:23;21.20;99.90
7502;DHT22;3792;47.740;7.606;2023-08-31T13:45:51;21.50;99.90
7502;DHT22;3792;47.740;7.606;2023-08-31T13:48:19;21.80;99.90
7502;DHT22;3792;47.740;7.606;2023-08-31T13:50:49;21.90;99.90
7502;DHT22;3792;47.740;7.606;2023-08-31T13:53:16;21.80;99.90
7502;DHT22;3792;47.740;7.606;2023-08-31T13:55:44;21.80;99.90
7502;DHT22;3792;47.740;7.606;2023-08-31T13:58:11;21.70;99.90
7502;DHT22;3792;47.740;7.606;2023-08-31T14:00:39;21.60;99.70
7502;DHT22;3792;47.740;7.606;2023-08-31T14:03:07;21.30;99.90
7502;DHT22;3792;47.740;7.606;2023-08-31T14:05:34;21.10;99.60
7502;DHT22;3792;47.740;7.606;2023-08-31T14:08:03;21.00;99.90
7502;DHT22;3792;47.740;7.606;2023-08-31T14:10:31;20.90;99.90
7502;DHT22;3792;47.740;7.606;2023-08-31T14:12:58;20.90;99.90
7502;DHT22;3792;47.740;7.606;2023-08-31T14:15:26;21.00;99.90
7502;DHT22;3792;47.740;7.606;2023-08-31T14:17:53;21.00;99.90
7502;DHT22;3792;47.740;7.606;2023-08-31T14:20:20;20.90;99.90
7502;DHT22;3792;47.740;7.606;2023-08-31T14:22:48;20.90;99.90
7502;DHT22;3792;47.740;7.606;2023-08-31T14:25:17;20.80;99.90
7502;DHT22;3792;47.740;7.606;2023-08-31T14:27:47;20.70;99.90
7502;DHT22;3792;47.740;7.606;2023-08-31T14:30:14;20.80;99.90
7502;DHT22;3792;47.740;7.606;2023-08-31T14:32:41;20.90;99.90
7502;DHT22;3792;47.740;7.606;2023-08-31T14:35:08;21.00;99.90
7502;DHT22;3792;47.740;7.606;2023-08-31T14:37:35;21.10;99.90
7502;DHT22;3792;47.740;7.606;2023-08-31T14:40:03;21.10;99.90
7502;DHT22;3792;47.740;7.606;2023-08-31T14:42:33;21.20;99.90
7502;DHT22;3792;47.740;7.606;2023-08-31T14:45:01;21.20;99.90
7502;DHT22;3792;47.740;7.606;2023-08-31T14:47:28;21.10;99.60
7502;DHT22;3792;47.740;7.606;2023-08-31T14:49:55;21.10;99.90
7502;DHT22;3792;47.740;7.606;2023-08-31T14:52:23;21.10;99.90
7502;DHT22;3792;47.740;7.606;2023-08-31T14:54:50;21.10;99.90
7502;DHT22;3792;47.740;7.606;2023-08-31T14:57:17;21.00;99.80
7502;DHT22;3792;47.740;7.606;2023-08-31T14:59:46;21.00;99.90
7502;DHT22;3792;47.740;7.606;2023-08-31T15:02:13;21.00;99.90
7502;DHT22;3792;47.740;7.606;2023-08-31T15:04:41;20.90;99.90
7502;DHT22;3792;47.740;7.606;2023-08-31T15:07:09;20.80;99.90
7502;DHT22;3792;47.740;7.606;2023-08-31T15:09:36;20.80;99.90
7502;DHT22;3792;47.740;7.606;2023-08-31T15:12:04;20.70;99.90
7502;DHT22;3792;47.740;7.606;2023-08-31T15:14:31;20.70;99.90
7502;DHT22;3792;47.740;7.606;2023-08-31T15:16:59;20.60;99.90
7502;DHT22;3792;47.740;7.606;2023-08-31T15:19:26;20.60;99.90
7502;DHT22;3792;47.740;7.606;2023-08-31T15:21:53;20.50;99.90
7502;DHT22;3792;47.740;7.606;2023-08-31T15:24:20;20.50;99.90
7502;DHT22;3792;47.740;7.606;2023-08-31T15:26:47;20.40;99.90
7502;DHT22;3792;47.740;7.606;2023-08-31T15:29:14;20.40;99.90
7502;DHT22;3792;47.740;7.606;2023-08-31T15:31:42;20.30;99.90
7502;DHT22;3792;47.740;7.606;2023-08-31T15:34:11;20.30;99.90
7502;DHT22;3792;47.740;7.606;2023-08-31T15:36:38;20.20;99.90
7502;DHT22;3792;47.740;7.606;2023-08-31T15:39:06;20.10;99.90
7502;DHT22;3792;47.740;7.606;2023-08-31T15:41:34;20.20;99.90
7502;DHT22;3792;47.740;7.606;2023-08-31T15:44:02;20.10;99.90
7502;DHT22;3792;47.740;7.606;2023-08-31T15:46:29;20.10;99.90
7502;DHT22;3792;47.740;7.606;2023-08-31T15:48:56;20.10;99.90
7502;DHT22;3792;47.740;7.606;2023-08-31T15:51:25;20.10;99.90
7502;DHT22;3792;47.740;7.606;2023-08-31T15:53:54;20.00;99.90
7502;DHT22;3792;47.740;7.606;2023-08-31T15:56:21;20.00;99.90
7502;DHT22;3792;47.740;7.606;2023-08-31T15:58:48;20.00;99.90
7502;DHT22;3792;47.740;7.606;2023-08-31T16:01:16;19.90;99.90
7502;DHT22;3792;47.740;7.606;2023-08-31T16:03:43;19.90;99.90
7502;DHT22;3792;47.740;7.606;2023-08-31T16:06:10;19.90;99.90
7502;DHT22;3792;47.740;7.606;2023-08-31T16:08:41;19.80;99.90